Time;durP1;ratioP1;P1;durP2;ratioP2;P2;SDS_P1;SDS_P2;PMS_P1;PMS_P2;Temp;Humidity;BMP_temperature;BMP_pressure;BME280_temperature;BME280_humidity;BME280_pressure;Samples;Min_cycle;Max_cycle;Signal;HPM_P1;HPM_P2
2022/03/07 00:01:15;;;;;;;21.10;14.13;;;4.70;96.70;;;;;;4984674;28;20607;-82
2022/03/07 00:03:45;;;;;;;21.20;13.30;;;4.70;96.70;;;;;;4999882;28;20468;-82
2022/03/07 00:06:14;;;;;;;19.45;11.80;;;4.60;96.70;;;;;;4967259;28;20157;-82
2022/03/07 00:08:42;;;;;;;17.55;11.13;;;4.50;96.70;;;;;;4971528;28;20049;-82
2022/03/07 00:11:10;;;;;;;14.23;9.65;;;4.40;96.70;;;;;;5000262;28;20492;-81
2022/03/07 00:13:38;;;;;;;17.63;9.10;;;4.40;96.70;;;;;;4999558;28;20085;-82
2022/03/07 00:16:06;;;;;;;12.68;8.52;;;4.30;96.70;;;;;;4983156;28;20675;-82
2022/03/07 00:18:36;;;;;;;12.18;8.13;;;4.20;96.70;;;;;;5003133;28;20051;-81
2022/03/07 00:21:06;;;;;;;14.52;9.52;;;4.10;96.70;;;;;;4999900;28;20051;-84
2022/03/07 00:23:35;;;;;;;13.00;8.52;;;4.10;96.70;;;;;;4983594;28;20054;-85
2022/03/07 00:26:04;;;;;;;15.20;8.98;;;4.10;96.70;;;;;;4969795;28;20085;-84
2022/03/07 00:28:32;;;;;;;13.63;8.35;;;4.00;96.70;;;;;;4968141;28;20051;-84
2022/03/07 00:31:01;;;;;;;10.90;7.75;;;4.10;96.70;;;;;;4969060;28;20074;-85
2022/03/07 00:33:29;;;;;;;11.50;7.90;;;4.10;96.70;;;;;;5000661;28;20046;-84
2022/03/07 00:35:58;;;;;;;11.57;7.75;;;4.10;96.70;;;;;;4982502;28;20147;-85
2022/03/07 00:38:28;;;;;;;14.15;8.70;;;4.20;96.70;;;;;;5022629;28;20054;-87
2022/03/07 00:40:56;;;;;;;13.77;8.43;;;4.10;96.70;;;;;;4987902;28;20049;-89
2022/03/07 00:43:25;;;;;;;12.32;8.15;;;4.10;96.70;;;;;;5003959;28;20105;-90
2022/03/07 00:45:58;;;;;;;13.10;8.82;;;4.00;96.70;;;;;;4970181;28;20137;-90
2022/03/07 00:48:26;;;;;;;13.20;7.82;;;4.00;96.70;;;;;;5001479;28;20061;-90
2022/03/07 00:50:55;;;;;;;12.95;8.15;;;3.90;96.70;;;;;;4984938;28;20054;-88
2022/03/07 00:53:24;;;;;;;29.42;9.95;;;3.80;96.70;;;;;;5013385;28;20074;-89
2022/03/07 00:55:56;;;;;;;12.32;7.85;;;3.80;96.70;;;;;;4996063;28;20046;-90
2022/03/07 00:58:30;;;;;;;14.00;8.18;;;3.80;96.70;;;;;;4990480;28;20057;-89
2022/03/07 01:00:58;;;;;;;12.20;7.47;;;3.80;96.70;;;;;;4977017;28;20034;-89
2022/03/07 01:03:27;;;;;;;12.35;8.02;;;3.90;96.70;;;;;;5002016;28;20149;-90
2022/03/07 01:05:55;;;;;;;11.40;8.07;;;3.70;96.70;;;;;;4985870;28;20038;-90
2022/03/07 01:08:23;;;;;;;11.30;7.88;;;3.80;96.70;;;;;;4985390;28;20515;-91
2022/03/07 01:10:53;;;;;;;10.95;7.63;;;3.70;96.70;;;;;;4968925;28;20074;-91
2022/03/07 01:13:22;;;;;;;11.82;8.00;;;3.70;96.70;;;;;;4965026;28;20083;-91
2022/03/07 01:15:50;;;;;;;16.27;8.93;;;3.70;96.70;;;;;;4965475;28;20113;-91
2022/03/07 01:18:19;;;;;;;13.05;6.97;;;3.60;96.70;;;;;;4985058;28;20054;-90
2022/03/07 01:20:47;;;;;;;13.70;8.10;;;3.60;96.70;;;;;;4985987;28;20298;-91
2022/03/07 01:23:16;;;;;;;11.15;7.50;;;3.70;96.70;;;;;;4970724;28;20490;-91
2022/03/07 01:25:44;;;;;;;13.02;7.63;;;3.60;96.70;;;;;;4973508;28;20042;-90
2022/03/07 01:28:14;;;;;;;11.40;7.68;;;3.60;96.70;;;;;;4972973;28;20665;-91
2022/03/07 01:30:42;;;;;;;12.25;7.75;;;3.60;96.70;;;;;;5003421;28;20054;-92
2022/03/07 01:33:10;;;;;;;12.95;7.80;;;3.60;96.70;;;;;;4971205;28;20496;-91
2022/03/07 01:35:39;;;;;;;11.65;7.88;;;3.60;96.70;;;;;;5016014;28;20050;-89
2022/03/07 01:38:07;;;;;;;12.32;8.52;;;3.60;96.70;;;;;;4986553;28;20054;-90
2022/03/07 01:40:36;;;;;;;12.68;8.43;;;3.50;96.70;;;;;;5020961;28;20109;-91
2022/03/07 01:43:06;;;;;;;12.38;7.72;;;3.50;96.70;;;;;;4973346;28;20137;-89
2022/03/07 01:45:40;;;;;;;12.55;7.35;;;3.60;96.70;;;;;;4970824;28;20206;-89
2022/03/07 01:48:08;;;;;;;12.85;7.75;;;3.60;96.70;;;;;;5001625;28;20058;-89
2022/03/07 01:50:37;;;;;;;12.13;7.82;;;3.50;96.70;;;;;;4975655;28;20342;-90
2022/03/07 01:53:07;;;;;;;12.38;7.32;;;3.40;96.70;;;;;;5000172;28;20077;-91
2022/03/07 01:55:35;;;;;;;9.98;6.50;;;3.20;96.70;;;;;;5002380;28;20043;-90
2022/03/07 01:58:05;;;;;;;15.25;8.48;;;2.90;96.70;;;;;;5001155;28;20137;-90
2022/03/07 02:00:35;;;;;;;12.30;8.15;;;2.90;96.70;;;;;;4969407;28;20090;-89
2022/03/07 02:03:05;;;;;;;10.15;6.50;;;3.00;96.70;;;;;;5000382;28;20039;-89
2022/03/07 02:05:39;;;;;;;11.55;7.47;;;3.00;96.70;;;;;;4971325;28;20070;-92
2022/03/07 02:08:14;;;;;;;11.65;7.97;;;2.90;96.70;;;;;;4977493;28;20072;-90
2022/03/07 02:10:58;;;;;;;15.70;8.27;;;2.80;96.70;;;;;;5008595;28;20513;-88
2022/03/07 02:13:30;;;;;;;12.82;8.57;;;2.80;96.70;;;;;;5000898;28;20054;-91
2022/03/07 02:16:06;;;;;;;16.17;9.75;;;2.70;96.70;;;;;;5003665;28;20058;-91
2022/03/07 02:18:37;;;;;;;16.45;9.48;;;2.70;96.70;;;;;;4999453;28;20073;-91
2022/03/07 02:21:21;;;;;;;17.73;10.60;;;2.80;96.70;;;;;;4990704;28;20050;-90
2022/03/07 02:24:01;;;;;;;17.65;9.85;;;2.70;96.70;;;;;;5006189;28;20151;-88
2022/03/07 02:26:30;;;;;;;17.27;9.93;;;2.70;96.70;;;;;;5008548;28;20042;-89
2022/03/07 02:29:00;;;;;;;15.27;9.25;;;2.70;96.70;;;;;;5005040;28;20050;-90
2022/03/07 02:31:31;;;;;;;12.48;8.70;;;2.70;96.70;;;;;;4988408;28;20054;-90
2022/03/07 02:34:02;;;;;;;14.02;8.77;;;2.80;96.70;;;;;;4971100;28;20432;-89
2022/03/07 02:36:31;;;;;;;13.60;8.38;;;2.80;96.70;;;;;;5003950;28;20069;-88
2022/03/07 02:39:05;;;;;;;14.43;8.73;;;2.80;96.70;;;;;;4973074;28;20050;-90
2022/03/07 02:41:37;;;;;;;15.82;8.45;;;2.80;96.70;;;;;;5010555;28;20058;-90
2022/03/07 02:44:06;;;;;;;15.05;8.82;;;2.80;96.70;;;;;;4974108;28;20058;-91
2022/03/07 02:46:35;;;;;;;12.98;8.70;;;2.80;96.70;;;;;;5003951;28;20416;-90
2022/03/07 02:49:04;;;;;;;16.05;8.80;;;2.80;96.70;;;;;;4973427;28;20796;-91
2022/03/07 02:51:33;;;;;;;15.35;9.25;;;2.80;96.70;;;;;;4987829;28;20074;-91
2022/03/07 02:54:03;;;;;;;18.70;10.52;;;2.80;96.70;;;;;;4971496;28;20054;-91
2022/03/07 02:56:34;;;;;;;14.30;9.07;;;2.80;96.70;;;;;;5003142;28;20114;-90
2022/03/07 02:59:03;;;;;;;14.18;9.35;;;2.80;96.70;;;;;;4979374;28;20046;-83
2022/03/07 03:01:31;;;;;;;17.48;9.43;;;2.80;96.70;;;;;;4972801;28;20073;-83
2022/03/07 03:04:00;;;;;;;17.98;9.98;;;2.90;96.70;;;;;;5002244;28;20053;-83
2022/03/07 03:06:28;;;;;;;16.25;10.13;;;2.90;96.70;;;;;;4995193;28;20058;-84
2022/03/07 03:08:57;;;;;;;15.95;10.55;;;2.90;96.70;;;;;;4969218;28;20074;-84
2022/03/07 03:11:28;;;;;;;15.90;10.20;;;2.80;96.70;;;;;;5000597;28;20410;-83
2022/03/07 03:13:56;;;;;;;18.25;11.07;;;2.90;96.70;;;;;;4997974;28;20039;-84
2022/03/07 03:16:25;;;;;;;15.63;10.32;;;2.90;96.70;;;;;;4967091;28;20046;-83
2022/03/07 03:18:53;;;;;;;15.77;9.77;;;2.70;96.70;;;;;;4972810;28;20066;-83
2022/03/07 03:21:22;;;;;;;17.10;10.40;;;2.60;96.70;;;;;;4968840;28;20540;-83
2022/03/07 03:23:50;;;;;;;15.13;9.73;;;2.60;96.70;;;;;;5004083;28;20134;-84
2022/03/07 03:26:18;;;;;;;16.15;9.55;;;2.60;96.70;;;;;;4985019;28;20146;-83
2022/03/07 03:28:51;;;;;;;13.23;9.30;;;2.70;96.70;;;;;;4969472;28;20370;-83
2022/03/07 03:31:20;;;;;;;16.25;9.38;;;2.70;96.70;;;;;;4999321;28;20051;-83
2022/03/07 03:33:49;;;;;;;15.75;9.35;;;2.60;96.70;;;;;;4968614;28;20488;-83
2022/03/07 03:36:18;;;;;;;14.45;8.70;;;2.60;96.70;;;;;;4968690;28;20047;-83
2022/03/07 03:38:46;;;;;;;13.27;8.50;;;2.50;96.70;;;;;;4999844;28;20050;-84
2022/03/07 03:41:14;;;;;;;15.23;9.00;;;2.40;96.70;;;;;;4967023;28;20050;-83
2022/03/07 03:43:43;;;;;;;14.23;8.50;;;2.60;96.70;;;;;;4969685;28;20047;-81
2022/03/07 03:46:13;;;;;;;14.70;8.70;;;2.60;96.70;;;;;;4969725;28;20038;-83
2022/03/07 03:48:41;;;;;;;14.70;8.60;;;2.60;96.70;;;;;;4983909;28;20035;-83
2022/03/07 03:51:09;;;;;;;14.57;8.82;;;2.50;96.70;;;;;;4968619;28;20046;-83
2022/03/07 03:53:38;;;;;;;13.63;8.80;;;2.50;96.70;;;;;;4968381;28;20049;-83
2022/03/07 03:56:06;;;;;;;14.63;8.43;;;2.50;96.70;;;;;;4968315;28;20081;-83
2022/03/07 03:58:34;;;;;;;15.82;8.90;;;2.50;96.70;;;;;;4968227;28;20117;-83
2022/03/07 04:01:04;;;;;;;17.88;8.65;;;2.60;96.70;;;;;;4987392;28;20046;-90
2022/03/07 04:03:35;;;;;;;15.93;8.73;;;2.60;96.70;;;;;;4972084;28;20038;-90
2022/03/07 04:06:08;;;;;;;14.52;8.40;;;2.60;96.70;;;;;;4972705;28;20419;-89
2022/03/07 04:08:47;;;;;;;16.73;8.65;;;2.60;96.70;;;;;;4984711;28;20081;-90
2022/03/07 04:11:20;;;;;;;14.77;8.18;;;2.70;96.70;;;;;;4987913;28;20051;-87
2022/03/07 04:13:49;;;;;;;15.70;9.23;;;2.80;96.70;;;;;;4976373;28;20042;-91
2022/03/07 04:16:17;;;;;;;13.38;8.75;;;2.90;96.70;;;;;;5026127;28;20043;-89
2022/03/07 04:18:47;;;;;;;18.90;9.10;;;2.90;96.70;;;;;;4990278;28;20035;-88
2022/03/07 04:21:15;;;;;;;14.25;9.35;;;2.90;96.70;;;;;;5018589;28;20057;-89
2022/03/07 04:23:43;;;;;;;16.88;8.70;;;2.70;96.70;;;;;;5019023;28;20725;-87
2022/03/07 04:26:12;;;;;;;14.00;8.70;;;2.70;96.70;;;;;;5001613;28;20038;-83
2022/03/07 04:28:40;;;;;;;14.73;8.45;;;2.60;96.70;;;;;;4986742;28;20065;-83
2022/03/07 04:31:08;;;;;;;13.88;8.80;;;2.40;96.70;;;;;;5007401;28;20059;-83
2022/03/07 04:33:37;;;;;;;12.43;8.02;;;2.20;96.70;;;;;;4984128;28;20560;-83
2022/03/07 04:36:07;;;;;;;13.43;8.63;;;2.40;96.70;;;;;;5005950;28;20522;-89
2022/03/07 04:38:35;;;;;;;13.68;8.23;;;2.30;96.70;;;;;;4969969;28;20050;-91
2022/03/07 04:41:04;;;;;;;15.88;8.75;;;2.20;96.70;;;;;;5018488;28;20073;-91
2022/03/07 04:43:32;;;;;;;15.18;8.40;;;2.10;96.70;;;;;;4986665;28;20039;-90
2022/03/07 04:46:01;;;;;;;11.85;7.68;;;2.00;96.70;;;;;;4966446;28;20069;-91
2022/03/07 04:48:30;;;;;;;10.88;7.50;;;2.10;96.70;;;;;;4986722;28;20125;-92
2022/03/07 04:50:59;;;;;;;12.50;7.80;;;2.00;96.70;;;;;;4985932;28;20047;-91
2022/03/07 04:53:28;;;;;;;14.77;8.13;;;2.10;96.70;;;;;;5003270;28;20047;-91
2022/03/07 04:55:57;;;;;;;12.90;8.23;;;2.20;96.70;;;;;;4969197;28;20098;-89
2022/03/07 04:58:25;;;;;;;15.30;8.10;;;2.20;96.70;;;;;;4986752;28;20038;-89
2022/03/07 05:00:54;;;;;;;12.32;7.70;;;2.30;96.70;;;;;;4969464;28;20042;-91
2022/03/07 05:03:23;;;;;;;13.60;8.10;;;2.40;96.70;;;;;;5001646;28;20038;-90
2022/03/07 05:05:52;;;;;;;14.65;8.60;;;2.40;96.70;;;;;;4990166;28;20031;-88
2022/03/07 05:08:21;;;;;;;13.45;8.60;;;2.40;96.70;;;;;;4984212;28;20118;-86
2022/03/07 05:10:50;;;;;;;14.98;9.50;;;2.40;96.70;;;;;;4981453;28;20543;-90
2022/03/07 05:13:19;;;;;;;15.98;8.85;;;2.50;96.70;;;;;;5012760;28;20051;-90
2022/03/07 05:15:47;;;;;;;14.48;8.35;;;2.40;96.70;;;;;;4971375;28;20093;-89
2022/03/07 05:18:21;;;;;;;13.93;7.68;;;2.30;96.70;;;;;;4968763;28;20501;-91
2022/03/07 05:20:49;;;;;;;16.65;8.00;;;2.30;96.70;;;;;;4970180;28;20488;-91
2022/03/07 05:23:24;;;;;;;18.10;7.45;;;2.30;96.70;;;;;;4970564;28;20446;-91
2022/03/07 05:25:54;;;;;;;13.68;7.90;;;2.30;96.70;;;;;;4969387;28;20073;-88
2022/03/07 05:28:22;;;;;;;14.07;8.88;;;2.30;96.70;;;;;;4985768;28;20109;-90
2022/03/07 05:30:50;;;;;;;15.18;8.40;;;2.40;96.70;;;;;;4985733;28;20038;-95
2022/03/07 05:33:18;;;;;;;14.30;8.90;;;2.40;96.70;;;;;;5004835;28;20321;-94
2022/03/07 05:35:46;;;;;;;15.27;9.00;;;2.40;96.70;;;;;;5003751;28;20042;-93
2022/03/07 05:38:17;;;;;;;12.88;8.27;;;2.30;96.70;;;;;;4986579;28;20050;-94
2022/03/07 05:40:45;;;;;;;15.05;8.43;;;2.30;96.70;;;;;;4971467;28;20038;-93
2022/03/07 05:43:15;;;;;;;12.98;7.97;;;2.40;96.70;;;;;;4968603;28;20051;-86
2022/03/07 05:45:43;;;;;;;13.68;8.32;;;2.30;96.70;;;;;;5000323;28;20054;-86
2022/03/07 05:48:12;;;;;;;12.20;7.95;;;2.40;96.70;;;;;;4965374;28;20043;-85
2022/03/07 05:50:41;;;;;;;15.60;8.90;;;2.30;96.70;;;;;;4983555;28;20054;-86
2022/03/07 05:53:09;;;;;;;13.48;9.13;;;2.30;96.70;;;;;;5000614;28;20046;-85
2022/03/07 05:55:37;;;;;;;16.35;10.20;;;2.30;96.70;;;;;;5016073;28;20039;-85
2022/03/07 05:58:05;;;;;;;15.00;9.07;;;2.20;96.70;;;;;;4971387;28;20047;-85
2022/03/07 06:00:35;;;;;;;13.43;9.02;;;2.20;96.70;;;;;;5003312;28;20515;-85
2022/03/07 06:03:03;;;;;;;18.63;10.30;;;2.20;96.70;;;;;;5003334;28;20051;-85
2022/03/07 06:05:31;;;;;;;16.88;10.25;;;2.20;96.70;;;;;;4969646;28;20113;-84
2022/03/07 06:07:59;;;;;;;17.63;10.65;;;2.20;96.70;;;;;;4970319;28;20056;-85
2022/03/07 06:10:27;;;;;;;13.85;9.32;;;2.10;96.70;;;;;;4985980;28;20039;-86
2022/03/07 06:12:56;;;;;;;13.95;8.65;;;2.10;96.70;;;;;;4989215;28;20046;-85
2022/03/07 06:15:24;;;;;;;14.00;9.40;;;2.10;96.70;;;;;;5001053;28;20054;-85
2022/03/07 06:17:55;;;;;;;18.27;10.05;;;2.10;96.70;;;;;;4972245;28;20404;-85
2022/03/07 06:20:24;;;;;;;15.30;10.00;;;2.10;96.70;;;;;;4968553;28;20043;-85
2022/03/07 06:22:53;;;;;;;16.40;9.07;;;2.10;96.70;;;;;;5001909;28;20127;-85
2022/03/07 06:25:21;;;;;;;14.45;8.45;;;2.10;96.70;;;;;;5000315;28;20834;-85
2022/03/07 06:27:49;;;;;;;16.75;9.70;;;2.10;96.70;;;;;;5001776;28;20508;-84
2022/03/07 06:30:17;;;;;;;18.80;9.55;;;2.20;96.70;;;;;;4971612;28;20151;-85
2022/03/07 06:32:45;;;;;;;19.58;9.70;;;2.30;96.70;;;;;;4982579;28;20636;-85
2022/03/07 06:35:15;;;;;;;14.60;8.93;;;2.40;96.70;;;;;;4985714;28;20050;-85
2022/03/07 06:37:47;;;;;;;14.30;9.30;;;2.50;96.70;;;;;;5002664;28;20062;-85
2022/03/07 06:40:16;;;;;;;14.27;9.35;;;2.60;96.70;;;;;;5001839;28;20055;-85
2022/03/07 06:42:46;;;;;;;15.10;9.88;;;2.70;96.70;;;;;;5001022;28;20130;-85
2022/03/07 06:45:16;;;;;;;16.83;10.15;;;2.70;96.70;;;;;;4970731;28;20508;-85
2022/03/07 06:47:45;;;;;;;16.95;10.52;;;2.80;96.70;;;;;;5000077;28;20362;-85
2022/03/07 06:50:16;;;;;;;17.45;9.50;;;2.90;96.70;;;;;;4985768;28;20043;-85
2022/03/07 06:52:44;;;;;;;15.10;9.43;;;3.00;96.70;;;;;;4986096;28;20039;-86
2022/03/07 06:55:13;;;;;;;18.33;9.23;;;3.20;96.70;;;;;;5002158;28;20058;-85
2022/03/07 06:57:42;;;;;;;20.38;10.27;;;3.30;96.70;;;;;;4969968;28;20053;-85
2022/03/07 07:00:13;;;;;;;19.17;9.93;;;3.40;96.70;;;;;;5001963;28;20055;-85
2022/03/07 07:02:42;;;;;;;20.55;10.10;;;3.50;96.70;;;;;;4969799;28;20073;-85
2022/03/07 07:05:11;;;;;;;17.70;9.30;;;3.70;96.70;;;;;;4969353;28;20066;-85
2022/03/07 07:07:42;;;;;;;13.15;8.88;;;3.70;96.70;;;;;;4984427;28;20043;-86
2022/03/07 07:10:11;;;;;;;13.77;9.32;;;3.90;96.70;;;;;;4969121;28;20146;-86
2022/03/07 07:12:38;;;;;;;14.43;8.35;;;4.00;96.70;;;;;;4985927;28;20054;-85
2022/03/07 07:15:08;;;;;;;13.45;8.90;;;4.00;96.70;;;;;;5003543;28;20054;-86
2022/03/07 07:17:36;;;;;;;14.18;9.23;;;4.20;96.70;;;;;;5002478;28;20500;-85
2022/03/07 07:20:06;;;;;;;14.30;9.48;;;4.30;96.70;;;;;;4985610;28;20038;-85
2022/03/07 07:22:34;;;;;;;13.63;8.75;;;4.40;96.70;;;;;;4984681;28;20047;-86
2022/03/07 07:25:05;;;;;;;18.27;9.70;;;4.50;96.70;;;;;;5002094;28;20070;-86
2022/03/07 07:27:34;;;;;;;17.63;10.38;;;4.60;96.70;;;;;;5002774;28;20042;-86
2022/03/07 07:30:06;;;;;;;18.50;10.88;;;4.70;96.70;;;;;;4984830;28;20070;-86
2022/03/07 07:32:34;;;;;;;20.48;10.45;;;4.80;96.70;;;;;;4964001;28;20053;-86
2022/03/07 07:35:03;;;;;;;41.03;13.35;;;4.80;96.70;;;;;;4983456;28;20047;-85
2022/03/07 07:37:31;;;;;;;20.48;11.27;;;4.90;96.70;;;;;;4989142;28;20160;-85
2022/03/07 07:39:59;;;;;;;17.25;11.27;;;5.00;96.70;;;;;;4997125;28;20551;-86
2022/03/07 07:42:29;;;;;;;17.42;10.88;;;5.10;96.70;;;;;;4986464;28;20035;-86
2022/03/07 07:44:57;;;;;;;16.83;9.80;;;5.20;96.70;;;;;;4970834;28;20054;-85
2022/03/07 07:47:25;;;;;;;18.30;11.10;;;5.30;96.70;;;;;;4968724;28;20062;-86
2022/03/07 07:49:53;;;;;;;18.27;10.50;;;5.40;96.70;;;;;;4968991;28;20117;-85
2022/03/07 07:52:21;;;;;;;15.02;10.27;;;5.50;96.70;;;;;;4985349;28;20950;-86
2022/03/07 07:54:49;;;;;;;18.90;11.48;;;5.60;96.70;;;;;;4968973;28;20831;-86
2022/03/07 07:57:17;;;;;;;16.13;10.60;;;5.70;96.70;;;;;;4985094;28;20543;-86
2022/03/07 07:59:47;;;;;;;16.25;11.45;;;5.90;96.70;;;;;;4968644;28;20758;-86
2022/03/07 08:02:44;;;;;;;16.27;10.18;;;6.00;96.70;;;;;;4980361;28;20550;-86
2022/03/07 08:05:13;;;;;;;15.73;9.80;;;6.10;96.70;;;;;;5001629;28;20058;-89
2022/03/07 08:07:41;;;;;;;16.40;10.25;;;6.30;96.70;;;;;;4970149;28;20054;-89
2022/03/07 08:10:10;;;;;;;16.75;10.57;;;6.40;96.70;;;;;;4971059;28;20107;-88
2022/03/07 08:12:39;;;;;;;13.77;9.50;;;6.60;96.70;;;;;;4984742;28;20045;-90
2022/03/07 08:15:12;;;;;;;13.98;9.45;;;6.70;96.70;;;;;;5002666;28;20121;-88
2022/03/07 08:17:46;;;;;;;13.68;9.18;;;6.80;96.70;;;;;;5001330;28;20094;-88
2022/03/07 08:20:14;;;;;;;14.80;9.93;;;6.90;96.70;;;;;;4997390;28;20049;-87
2022/03/07 08:22:43;;;;;;;13.52;8.68;;;7.00;96.70;;;;;;4984548;28;20044;-85
2022/03/07 08:25:12;;;;;;;10.73;7.60;;;7.10;96.70;;;;;;4972184;28;20060;-86
2022/03/07 08:27:41;;;;;;;9.07;6.65;;;7.20;96.70;;;;;;4967946;28;20070;-84
2022/03/07 08:30:13;;;;;;;22.48;9.02;;;7.30;96.70;;;;;;4984624;28;20057;-84
2022/03/07 08:32:41;;;;;;;13.27;7.50;;;7.40;96.70;;;;;;4969503;28;20050;-87
2022/03/07 08:35:13;;;;;;;11.77;6.88;;;7.40;96.70;;;;;;4972336;28;20047;-88
2022/03/07 08:37:43;;;;;;;10.10;6.93;;;7.50;96.70;;;;;;4984205;28;20047;-89
2022/03/07 08:40:12;;;;;;;13.63;7.43;;;7.70;96.70;;;;;;4979140;28;20133;-91
2022/03/07 08:42:41;;;;;;;10.20;7.50;;;7.70;96.70;;;;;;4991303;28;20130;-91
2022/03/07 08:45:11;;;;;;;11.45;7.40;;;7.80;96.70;;;;;;5022639;28;20054;-91
2022/03/07 08:47:40;;;;;;;9.25;7.05;;;7.90;96.70;;;;;;4971937;28;20042;-91
2022/03/07 08:50:11;;;;;;;9.73;7.03;;;8.00;96.70;;;;;;4970966;28;20104;-92
2022/03/07 08:52:39;;;;;;;12.95;7.35;;;8.00;96.70;;;;;;5003180;28;20086;-91
2022/03/07 08:55:08;;;;;;;10.88;6.80;;;8.10;96.70;;;;;;5001293;28;20082;-89
2022/03/07 08:57:37;;;;;;;10.10;6.70;;;8.20;96.70;;;;;;5002115;28;20059;-90
2022/03/07 09:00:09;;;;;;;11.55;6.80;;;8.30;96.70;;;;;;4982067;28;20051;-90
2022/03/07 09:02:48;;;;;;;12.05;6.53;;;8.40;96.70;;;;;;4984613;28;20102;-92
2022/03/07 09:05:16;;;;;;;10.20;6.15;;;8.40;96.70;;;;;;4988472;28;20496;-93
2022/03/07 09:07:44;;;;;;;8.15;5.65;;;8.50;96.70;;;;;;4968866;28;20046;-91
2022/03/07 09:10:13;;;;;;;8.10;6.28;;;8.50;96.70;;;;;;4985584;28;20049;-93
2022/03/07 09:12:44;;;;;;;9.05;5.90;;;8.60;96.70;;;;;;4970242;28;20041;-92
2022/03/07 09:15:14;;;;;;;10.15;5.90;;;8.70;96.70;;;;;;5001621;28;20146;-95
2022/03/07 09:17:42;;;;;;;7.82;5.65;;;8.70;96.70;;;;;;4999968;28;20094;-93
2022/03/07 09:20:16;;;;;;;10.85;6.13;;;8.80;96.70;;;;;;4983603;28;20235;-93
2022/03/07 09:22:45;;;;;;;11.00;6.38;;;8.80;96.70;;;;;;4983733;28;20050;-92
2022/03/07 09:25:14;;;;;;;8.95;6.18;;;8.70;96.70;;;;;;5001439;28;20051;-90
2022/03/07 09:27:44;;;;;;;8.40;6.47;;;8.80;96.70;;;;;;4999433;28;20074;-90
2022/03/07 09:30:13;;;;;;;9.40;6.20;;;8.80;96.70;;;;;;4985639;28;20047;-93
2022/03/07 09:32:42;;;;;;;9.25;6.25;;;8.90;96.70;;;;;;5001879;28;20118;-92
2022/03/07 09:35:10;;;;;;;9.38;6.35;;;9.00;96.70;;;;;;5000409;28;20039;-90
2022/03/07 09:37:40;;;;;;;10.02;6.22;;;9.10;96.70;;;;;;4997195;28;20122;-92
2022/03/07 09:40:09;;;;;;;8.50;6.47;;;9.20;96.70;;;;;;5002420;28;20051;-93
2022/03/07 09:42:39;;;;;;;8.85;5.65;;;9.30;96.70;;;;;;4967972;28;20046;-92
2022/03/07 09:45:10;;;;;;;7.97;6.07;;;9.40;96.70;;;;;;5001339;28;20231;-92
2022/03/07 09:47:40;;;;;;;9.05;5.97;;;9.50;95.70;;;;;;4967641;28;20057;-90
2022/03/07 09:50:10;;;;;;;6.72;5.57;;;9.60;94.70;;;;;;4970376;28;20051;-92
2022/03/07 09:52:42;;;;;;;7.28;5.53;;;9.60;94.10;;;;;;4985719;28;20047;-95
2022/03/07 09:55:13;;;;;;;8.43;6.00;;;9.50;94.30;;;;;;5002398;28;20055;-91
2022/03/07 09:57:42;;;;;;;8.88;5.80;;;9.50;94.40;;;;;;5001221;28;20051;-89
2022/03/07 10:00:11;;;;;;;8.20;5.93;;;9.60;94.60;;;;;;4970902;28;20071;-92
2022/03/07 10:02:39;;;;;;;8.38;6.10;;;9.60;94.10;;;;;;4988431;28;20054;-92
2022/03/07 10:05:08;;;;;;;9.07;6.13;;;9.90;94.00;;;;;;5001391;28;20050;-93
2022/03/07 10:07:46;;;;;;;7.70;5.72;;;10.00;93.70;;;;;;4968856;28;20043;-92
2022/03/07 10:10:14;;;;;;;7.95;5.85;;;10.10;94.40;;;;;;5000054;28;20043;-95
2022/03/07 10:12:49;;;;;;;8.02;5.55;;;10.10;93.80;;;;;;5001810;28;20133;-92
2022/03/07 10:15:22;;;;;;;6.65;5.35;;;10.10;92.90;;;;;;4984412;28;20054;-92
2022/03/07 10:17:51;;;;;;;8.68;5.90;;;10.20;92.90;;;;;;5002173;28;20043;-87
2022/03/07 10:20:21;;;;;;;7.38;5.43;;;10.30;92.10;;;;;;4991459;28;20469;-92
2022/03/07 10:22:53;;;;;;;7.55;5.35;;;10.40;91.80;;;;;;5001076;28;20046;-90
2022/03/07 10:25:24;;;;;;;7.28;5.25;;;10.40;92.40;;;;;;4984617;28;20049;-90
2022/03/07 10:27:52;;;;;;;6.88;5.57;;;10.40;92.20;;;;;;4978038;28;20073;-89
2022/03/07 10:30:22;;;;;;;8.38;5.97;;;10.30;91.90;;;;;;4981530;28;20062;-89
2022/03/07 10:32:56;;;;;;;8.95;5.97;;;10.30;91.60;;;;;;4972773;28;20050;-89
2022/03/07 10:35:27;;;;;;;8.77;5.38;;;10.60;92.00;;;;;;4988495;28;20117;-90
2022/03/07 10:37:58;;;;;;;9.43;6.25;;;10.60;91.30;;;;;;4972293;28;20094;-91
2022/03/07 10:40:27;;;;;;;6.93;5.20;;;10.60;90.60;;;;;;4968219;28;20064;-85
2022/03/07 10:43:00;;;;;;;6.90;5.70;;;10.70;90.50;;;;;;4987775;28;20146;-87
2022/03/07 10:45:29;;;;;;;8.10;6.15;;;11.00;89.60;;;;;;4987050;28;20053;-86
2022/03/07 10:47:58;;;;;;;8.60;5.85;;;11.10;89.60;;;;;;5003998;28;20069;-88
2022/03/07 10:50:28;;;;;;;9.50;5.75;;;11.10;88.90;;;;;;4985813;28;20050;-87
2022/03/07 10:53:04;;;;;;;8.93;6.00;;;11.20;88.70;;;;;;4982882;28;20121;-86
2022/03/07 10:55:34;;;;;;;8.05;5.85;;;11.30;89.60;;;;;;5002236;28;20194;-86
2022/03/07 10:58:07;;;;;;;6.95;5.38;;;11.20;89.70;;;;;;5002197;28;20050;-85
2022/03/07 11:00:48;;;;;;;7.60;5.35;;;11.10;89.80;;;;;;5022403;28;20089;-83
2022/03/07 11:03:19;;;;;;;6.10;4.88;;;11.20;90.20;;;;;;4971718;28;20125;-86
2022/03/07 11:05:48;;;;;;;7.40;5.80;;;11.50;90.30;;;;;;5001996;28;20042;-83
2022/03/07 11:08:20;;;;;;;8.30;5.63;;;11.70;90.10;;;;;;4986245;28;20043;-83
2022/03/07 11:10:54;;;;;;;7.15;5.47;;;11.80;90.30;;;;;;5002872;28;20062;-81
2022/03/07 11:13:29;;;;;;;7.85;5.50;;;11.80;89.20;;;;;;4987168;28;20104;-84
2022/03/07 11:15:59;;;;;;;6.63;5.05;;;11.90;89.20;;;;;;5003897;28;20508;-82
2022/03/07 11:18:30;;;;;;;7.68;5.80;;;11.90;88.70;;;;;;4970431;28;20074;-83
2022/03/07 11:20:59;;;;;;;8.00;5.90;;;12.00;89.30;;;;;;5002655;28;20141;-83
2022/03/07 11:23:29;;;;;;;6.95;5.55;;;12.10;89.40;;;;;;4990850;28;20039;-83
2022/03/07 11:25:59;;;;;;;7.22;6.10;;;12.10;87.80;;;;;;4972568;28;20035;-83
2022/03/07 11:28:29;;;;;;;6.43;5.32;;;12.20;88.80;;;;;;4984078;28;20042;-84
2022/03/07 11:30:58;;;;;;;7.32;5.55;;;12.20;90.30;;;;;;5009753;28;20050;-84
2022/03/07 11:33:37;;;;;;;6.32;5.03;;;12.20;89.50;;;;;;5001894;28;20051;-84
2022/03/07 11:36:17;;;;;;;10.05;5.60;;;12.30;87.40;;;;;;4983653;28;20050;-83
2022/03/07 11:38:57;;;;;;;6.07;4.95;;;12.40;87.40;;;;;;5002255;28;20049;-84
2022/03/07 11:41:27;;;;;;;7.78;5.82;;;12.50;87.20;;;;;;4969181;28;20039;-84
2022/03/07 11:43:57;;;;;;;7.47;5.78;;;12.60;88.40;;;;;;4969445;28;20063;-83
2022/03/07 11:46:29;;;;;;;6.65;5.35;;;12.60;87.50;;;;;;5001278;28;20105;-83
2022/03/07 11:48:57;;;;;;;7.60;5.68;;;12.70;87.50;;;;;;5001280;28;20128;-84
2022/03/07 11:51:27;;;;;;;7.00;5.88;;;12.70;88.20;;;;;;4968825;28;20090;-85
2022/03/07 11:53:58;;;;;;;8.45;5.90;;;12.80;86.40;;;;;;4985612;28;20085;-84
2022/03/07 11:56:28;;;;;;;8.60;5.97;;;12.90;86.70;;;;;;4998379;28;20407;-84
2022/03/07 11:58:58;;;;;;;6.65;5.47;;;12.90;85.80;;;;;;4986598;28;20066;-84
2022/03/07 12:01:31;;;;;;;7.13;5.60;;;12.90;85.20;;;;;;5001409;28;20051;-84
2022/03/07 12:04:10;;;;;;;7.25;5.60;;;13.00;86.00;;;;;;4985574;28;20043;-84
2022/03/07 12:06:44;;;;;;;7.97;6.07;;;13.20;84.60;;;;;;4984510;28;20302;-84
2022/03/07 12:09:23;;;;;;;8.32;5.35;;;13.20;84.30;;;;;;5004900;28;20496;-85
2022/03/07 12:11:58;;;;;;;6.50;5.53;;;13.30;84.40;;;;;;4998927;28;20042;-85
2022/03/07 12:14:28;;;;;;;8.25;5.85;;;13.40;85.30;;;;;;5002610;28;20110;-84
2022/03/07 12:17:00;;;;;;;8.63;5.68;;;13.50;84.10;;;;;;4984774;28;20141;-85
2022/03/07 12:19:29;;;;;;;8.57;5.50;;;13.50;82.40;;;;;;4984487;28;20142;-85
2022/03/07 12:22:08;;;;;;;10.27;6.03;;;13.50;83.50;;;;;;5001620;28;20030;-86
2022/03/07 12:24:39;;;;;;;5.93;5.00;;;13.50;84.10;;;;;;4985093;28;20487;-87
2022/03/07 12:27:08;;;;;;;6.72;5.55;;;13.60;84.10;;;;;;5001628;28;20109;-86
2022/03/07 12:29:40;;;;;;;8.07;5.72;;;13.70;83.60;;;;;;4970298;28;20050;-86
2022/03/07 12:32:09;;;;;;;7.65;5.82;;;13.80;82.70;;;;;;4968515;28;20057;-86
2022/03/07 12:34:39;;;;;;;8.10;5.75;;;13.90;83.20;;;;;;4984802;28;20039;-86
2022/03/07 12:37:13;;;;;;;7.68;6.00;;;14.00;84.10;;;;;;4972059;28;20046;-87
2022/03/07 12:39:48;;;;;;;9.18;5.40;;;13.90;83.60;;;;;;4988880;28;20049;-87
2022/03/07 12:42:19;;;;;;;6.85;5.25;;;13.90;82.40;;;;;;5020748;28;20161;-86
2022/03/07 12:44:48;;;;;;;7.88;5.65;;;14.10;82.50;;;;;;4998961;28;20747;-86
2022/03/07 12:47:19;;;;;;;7.35;5.65;;;14.20;82.90;;;;;;4968555;28;20050;-86
2022/03/07 12:49:49;;;;;;;6.85;5.53;;;14.10;82.00;;;;;;4970057;28;20049;-86
2022/03/07 12:52:23;;;;;;;7.13;5.65;;;14.00;82.20;;;;;;4999068;28;20062;-87
2022/03/07 12:54:54;;;;;;;8.75;6.53;;;14.00;82.40;;;;;;5000676;28;20051;-86
2022/03/07 12:57:23;;;;;;;7.25;6.05;;;14.20;81.50;;;;;;4977593;28;20595;-86
2022/03/07 12:59:56;;;;;;;7.43;5.47;;;14.20;81.80;;;;;;4997645;28;20595;-86